MSTRO02 LFOA-LFOA
Flight info
| Callsign | MSTRO02 |
|---|---|
| Flight time | 0h 58m |
| Altitude | 15500 |
| Route | DCT LFLX DCT |
| Aircraft | PC21/L-SDFGHIRTUVWY/LB1 |
Departure
| Time | 2026-05-05 12:20 |
|---|---|
| Airport | Avord (BA 702) Air Base (LFOA) |
Arrival
| Time | 2026-05-05 13:18 |
|---|---|
| Airport | Avord (BA 702) Air Base (LFOA) |
| Time | Latitude | Longitude | Altitude | Speed | Heading |
|---|---|---|---|---|---|
| 2026-05-05 11:47 | 47.04818 | 2.63350 | 565 ft | 0 kts | 25° |
| 2026-05-05 12:12 | 47.04819 | 2.63350 | 565 ft | 1 kts | 25° |
| 2026-05-05 12:12 | 47.04846 | 2.63319 | 568 ft | 12 kts | 292° |
| 2026-05-05 12:12 | 47.04848 | 2.63202 | 565 ft | 9 kts | 263° |
| 2026-05-05 12:12 | 47.04867 | 2.63115 | 568 ft | 11 kts | 295° |
| 2026-05-05 12:13 | 47.04904 | 2.62992 | 569 ft | 15 kts | 285° |
| 2026-05-05 12:13 | 47.04887 | 2.62823 | 570 ft | 18 kts | 260° |
| 2026-05-05 12:13 | 47.04862 | 2.62626 | 565 ft | 22 kts | 260° |
| 2026-05-05 12:13 | 47.04835 | 2.62395 | 565 ft | 23 kts | 259° |
| 2026-05-05 12:14 | 47.04807 | 2.62168 | 565 ft | 21 kts | 261° |
| 2026-05-05 12:14 | 47.04783 | 2.61957 | 567 ft | 22 kts | 259° |
| 2026-05-05 12:14 | 47.04756 | 2.61738 | 569 ft | 21 kts | 258° |
| 2026-05-05 12:14 | 47.04730 | 2.61531 | 565 ft | 20 kts | 260° |
| 2026-05-05 12:15 | 47.04710 | 2.61354 | 565 ft | 0 kts | 264° |
| 2026-05-05 12:18 | 47.04710 | 2.61352 | 565 ft | 3 kts | 264° |
| 2026-05-05 12:18 | 47.04735 | 2.61234 | 568 ft | 19 kts | 332° |
| 2026-05-05 12:18 | 47.04836 | 2.61244 | 564 ft | 11 kts | 79° |
| 2026-05-05 12:19 | 47.04849 | 2.61285 | 568 ft | 0 kts | 61° |
| 2026-05-05 12:19 | 47.04851 | 2.61291 | 567 ft | 9 kts | 61° |
| 2026-05-05 12:19 | 47.05000 | 2.61668 | 567 ft | 75 kts | 60° |
| 2026-05-05 12:19 | 47.05354 | 2.62573 | 576 ft | 125 kts | 60° |
| 2026-05-05 12:20 | 47.05840 | 2.63794 | 751 ft | 155 kts | 58° |
| 2026-05-05 12:20 | 47.06445 | 2.65276 | 1112 ft | 182 kts | 59° |
| 2026-05-05 12:20 | 47.07006 | 2.66992 | 1836 ft | 197 kts | 70° |
| 2026-05-05 12:20 | 47.07480 | 2.68952 | 2727 ft | 210 kts | 71° |
| 2026-05-05 12:21 | 47.07977 | 2.71063 | 3659 ft | 227 kts | 70° |
| 2026-05-05 12:21 | 47.08503 | 2.73263 | 4674 ft | 227 kts | 75° |
| 2026-05-05 12:21 | 47.08378 | 2.75499 | 5564 ft | 227 kts | 115° |
| 2026-05-05 12:21 | 47.07406 | 2.77243 | 6397 ft | 218 kts | 146° |
| 2026-05-05 12:22 | 47.06544 | 2.78034 | 6986 ft | 213 kts | 148° |
| 2026-05-05 12:22 | 47.05239 | 2.79087 | 7581 ft | 226 kts | 153° |
| 2026-05-05 12:22 | 47.03719 | 2.80196 | 7591 ft | 260 kts | 157° |
| 2026-05-05 12:22 | 47.01972 | 2.81232 | 7620 ft | 280 kts | 158° |
| 2026-05-05 12:23 | 47.00120 | 2.82319 | 7634 ft | 292 kts | 159° |
| 2026-05-05 12:23 | 46.98137 | 2.82995 | 7730 ft | 298 kts | 178° |
| 2026-05-05 12:23 | 46.96032 | 2.82818 | 7635 ft | 308 kts | 184° |
| 2026-05-05 12:23 | 46.93934 | 2.82706 | 7489 ft | 298 kts | 182° |
| 2026-05-05 12:24 | 46.91877 | 2.82604 | 7482 ft | 291 kts | 182° |
| 2026-05-05 12:24 | 46.89828 | 2.82501 | 7462 ft | 298 kts | 182° |
| 2026-05-05 12:24 | 46.87759 | 2.82354 | 7498 ft | 296 kts | 184° |
| 2026-05-05 12:24 | 46.85764 | 2.82160 | 7950 ft | 267 kts | 184° |
| 2026-05-05 12:25 | 46.83927 | 2.82013 | 8518 ft | 264 kts | 183° |
| 2026-05-05 12:25 | 46.82089 | 2.81887 | 9181 ft | 264 kts | 184° |
| 2026-05-05 12:25 | 46.80260 | 2.81701 | 9775 ft | 265 kts | 184° |
| 2026-05-05 12:25 | 46.78393 | 2.81575 | 10192 ft | 271 kts | 183° |
| 2026-05-05 12:26 | 46.76505 | 2.81419 | 10678 ft | 271 kts | 184° |
| 2026-05-05 12:26 | 46.74634 | 2.81248 | 11274 ft | 268 kts | 184° |
| 2026-05-05 12:26 | 46.72797 | 2.81112 | 11809 ft | 268 kts | 184° |
| 2026-05-05 12:26 | 46.70929 | 2.80984 | 12338 ft | 270 kts | 182° |
| 2026-05-05 12:27 | 46.68992 | 2.80851 | 12424 ft | 284 kts | 183° |
| 2026-05-05 12:27 | 46.66985 | 2.80726 | 12470 ft | 293 kts | 183° |
| 2026-05-05 12:27 | 46.64921 | 2.80579 | 12518 ft | 301 kts | 182° |
| 2026-05-05 12:27 | 46.62811 | 2.80430 | 12658 ft | 303 kts | 188° |
| 2026-05-05 12:28 | 46.61020 | 2.78943 | 12618 ft | 310 kts | 230° |
| 2026-05-05 12:28 | 46.59967 | 2.76174 | 12576 ft | 316 kts | 246° |
| 2026-05-05 12:28 | 46.59065 | 2.73241 | 12479 ft | 320 kts | 245° |
| 2026-05-05 12:28 | 46.58466 | 2.70115 | 11167 ft | 330 kts | 271° |
| 2026-05-05 12:29 | 46.59167 | 2.66818 | 8936 ft | 357 kts | 297° |
| 2026-05-05 12:29 | 46.60500 | 2.64113 | 7787 ft | 328 kts | 313° |
| 2026-05-05 12:29 | 46.62376 | 2.62135 | 7184 ft | 323 kts | 329° |
| 2026-05-05 12:29 | 46.64179 | 2.60542 | 7138 ft | 305 kts | 329° |
| 2026-05-05 12:30 | 46.65930 | 2.59066 | 7493 ft | 277 kts | 330° |
| 2026-05-05 12:30 | 46.67373 | 2.57534 | 8462 ft | 235 kts | 306° |
| 2026-05-05 12:30 | 46.67880 | 2.55393 | 9273 ft | 230 kts | 269° |
| 2026-05-05 12:30 | 46.67395 | 2.53142 | 9795 ft | 244 kts | 234° |
| 2026-05-05 12:31 | 46.66008 | 2.51669 | 10345 ft | 257 kts | 199° |
| 2026-05-05 12:31 | 46.64262 | 2.51612 | 11228 ft | 250 kts | 161° |
| 2026-05-05 12:31 | 46.62879 | 2.53011 | 12150 ft | 245 kts | 126° |
| 2026-05-05 12:31 | 46.62414 | 2.55302 | 12972 ft | 242 kts | 83° |
| 2026-05-05 12:32 | 46.63133 | 2.57530 | 13472 ft | 260 kts | 47° |
| 2026-05-05 12:32 | 46.64748 | 2.58990 | 13486 ft | 291 kts | 15° |
| 2026-05-05 12:32 | 46.66806 | 2.59078 | 13552 ft | 305 kts | 348° |
| 2026-05-05 12:32 | 46.68801 | 2.57896 | 13576 ft | 316 kts | 324° |
| 2026-05-05 12:33 | 46.70580 | 2.55994 | 13604 ft | 318 kts | 323° |
| 2026-05-05 12:33 | 46.72371 | 2.54056 | 13553 ft | 321 kts | 323° |
| 2026-05-05 12:33 | 46.74175 | 2.52138 | 13445 ft | 322 kts | 323° |
| 2026-05-05 12:33 | 46.75982 | 2.50214 | 13428 ft | 321 kts | 323° |
| 2026-05-05 12:34 | 46.77779 | 2.48291 | 13342 ft | 319 kts | 323° |
| 2026-05-05 12:34 | 46.79642 | 2.46260 | 11217 ft | 343 kts | 321° |
| 2026-05-05 12:34 | 46.80504 | 2.45171 | 15714 ft | 1 kts | 139° |
| 2026-05-05 12:34 | 46.80281 | 2.45511 | 16166 ft | 54 kts | 143° |
| 2026-05-05 12:35 | 46.81228 | 2.44585 | 12050 ft | 330 kts | 326° |
| 2026-05-05 12:35 | 46.83094 | 2.42680 | 11909 ft | 323 kts | 324° |
| 2026-05-05 12:35 | 46.84897 | 2.40829 | 11972 ft | 318 kts | 324° |
| 2026-05-05 12:35 | 46.86679 | 2.38932 | 12060 ft | 317 kts | 323° |
| 2026-05-05 12:36 | 46.88420 | 2.36946 | 12040 ft | 316 kts | 320° |
| 2026-05-05 12:36 | 46.90086 | 2.34910 | 12364 ft | 296 kts | 318° |
| 2026-05-05 12:36 | 46.91589 | 2.32912 | 12601 ft | 294 kts | 316° |
| 2026-05-05 12:36 | 46.93042 | 2.30804 | 12627 ft | 295 kts | 313° |
| 2026-05-05 12:37 | 46.94432 | 2.28579 | 12643 ft | 297 kts | 310° |
| 2026-05-05 12:37 | 46.95672 | 2.26175 | 12635 ft | 295 kts | 296° |
| 2026-05-05 12:37 | 46.95999 | 2.23251 | 12579 ft | 296 kts | 262° |
| 2026-05-05 12:37 | 46.95196 | 2.20515 | 12544 ft | 296 kts | 232° |
| 2026-05-05 12:38 | 46.93613 | 2.18651 | 12572 ft | 294 kts | 206° |
| 2026-05-05 12:38 | 46.91645 | 2.17869 | 12535 ft | 295 kts | 187° |
| 2026-05-05 12:38 | 46.89620 | 2.17636 | 12534 ft | 295 kts | 184° |
| 2026-05-05 12:38 | 46.87578 | 2.17478 | 12561 ft | 293 kts | 183° |
| 2026-05-05 12:39 | 46.85534 | 2.17338 | 12534 ft | 294 kts | 183° |
| 2026-05-05 12:39 | 46.83493 | 2.17138 | 12546 ft | 292 kts | 186° |
| 2026-05-05 12:39 | 46.81482 | 2.16824 | 12545 ft | 291 kts | 185° |
| 2026-05-05 12:39 | 46.79469 | 2.16621 | 12586 ft | 291 kts | 186° |
| 2026-05-05 12:40 | 46.77331 | 2.16380 | 10953 ft | 331 kts | 183° |
| 2026-05-05 12:40 | 46.75014 | 2.16268 | 10380 ft | 274 kts | 181° |
| 2026-05-05 12:40 | 46.74230 | 2.16228 | 14712 ft | 4 kts | 21° |
| 2026-05-05 12:40 | 46.74412 | 2.16353 | 14140 ft | 3 kts | 213° |
| 2026-05-05 12:41 | 46.73257 | 2.15000 | 11881 ft | 286 kts | 214° |
| 2026-05-05 12:41 | 46.71600 | 2.13421 | 12248 ft | 282 kts | 211° |
| 2026-05-05 12:41 | 46.69897 | 2.11964 | 12422 ft | 284 kts | 208° |
| 2026-05-05 12:41 | 46.68132 | 2.10657 | 12543 ft | 287 kts | 204° |
| 2026-05-05 12:42 | 46.66279 | 2.09490 | 12524 ft | 293 kts | 202° |
| 2026-05-05 12:42 | 46.64380 | 2.08413 | 12583 ft | 294 kts | 200° |
| 2026-05-05 12:42 | 46.62453 | 2.07430 | 12598 ft | 292 kts | 196° |
| 2026-05-05 12:42 | 46.60489 | 2.07535 | 12576 ft | 290 kts | 158° |
| 2026-05-05 12:43 | 46.59022 | 2.09459 | 12472 ft | 289 kts | 118° |
| 2026-05-05 12:43 | 46.58592 | 2.12267 | 12432 ft | 285 kts | 86° |
| 2026-05-05 12:43 | 46.58819 | 2.15128 | 12386 ft | 285 kts | 83° |
| 2026-05-05 12:43 | 46.59085 | 2.17984 | 12416 ft | 286 kts | 82° |
| 2026-05-05 12:44 | 46.59376 | 2.20853 | 12393 ft | 288 kts | 81° |
| 2026-05-05 12:44 | 46.59693 | 2.23796 | 12326 ft | 300 kts | 81° |
| 2026-05-05 12:44 | 46.60041 | 2.26843 | 12296 ft | 309 kts | 80° |
| 2026-05-05 12:44 | 46.60351 | 2.29943 | 12473 ft | 310 kts | 85° |
| 2026-05-05 12:45 | 46.60484 | 2.33067 | 12449 ft | 316 kts | 84° |
| 2026-05-05 12:45 | 46.60710 | 2.36225 | 12482 ft | 306 kts | 77° |
| 2026-05-05 12:45 | 46.61775 | 2.38627 | 12449 ft | 285 kts | 46° |
| 2026-05-05 12:45 | 46.63377 | 2.40367 | 12405 ft | 297 kts | 20° |
| 2026-05-05 12:46 | 46.65427 | 2.40799 | 12407 ft | 301 kts | 355° |
| 2026-05-05 12:46 | 46.67394 | 2.39828 | 12487 ft | 300 kts | 330° |
| 2026-05-05 12:46 | 46.69266 | 2.38410 | 12533 ft | 311 kts | 333° |
| 2026-05-05 12:46 | 46.71239 | 2.36983 | 12547 ft | 321 kts | 333° |
| 2026-05-05 12:47 | 46.73239 | 2.35470 | 10689 ft | 344 kts | 330° |
| 2026-05-05 12:47 | 46.74839 | 2.34040 | 12762 ft | 58 kts | 329° |
| 2026-05-05 12:47 | 46.74484 | 2.34305 | 15253 ft | 111 kts | 156° |
| 2026-05-05 12:47 | 46.74796 | 2.33858 | 10678 ft | 335 kts | 327° |
| 2026-05-05 12:48 | 46.76876 | 2.32398 | 10779 ft | 327 kts | 339° |
| 2026-05-05 12:48 | 46.78966 | 2.31401 | 11607 ft | 306 kts | 342° |
| 2026-05-05 12:48 | 46.80935 | 2.30364 | 12436 ft | 299 kts | 339° |
| 2026-05-05 12:48 | 46.82881 | 2.29271 | 12506 ft | 310 kts | 338° |
| 2026-05-05 12:49 | 46.84953 | 2.27974 | 10368 ft | 334 kts | 335° |
| 2026-05-05 12:49 | 46.86581 | 2.26830 | 12604 ft | 47 kts | 338° |
| 2026-05-05 12:49 | 46.86213 | 2.27038 | 15112 ft | 106 kts | 162° |
| 2026-05-05 12:49 | 46.86559 | 2.26733 | 10906 ft | 327 kts | 338° |
| 2026-05-05 12:50 | 46.88608 | 2.25349 | 11028 ft | 323 kts | 329° |
| 2026-05-05 12:50 | 46.89881 | 2.22786 | 11121 ft | 317 kts | 284° |
| 2026-05-05 12:50 | 46.89887 | 2.19591 | 11271 ft | 315 kts | 258° |
| 2026-05-05 12:50 | 46.88853 | 2.16819 | 11283 ft | 319 kts | 221° |
| 2026-05-05 12:51 | 46.87024 | 2.14992 | 11405 ft | 320 kts | 216° |
| 2026-05-05 12:51 | 46.85300 | 2.13202 | 10703 ft | 142 kts | 150° |
| 2026-05-05 12:51 | 46.86854 | 2.14964 | 8632 ft | 300 kts | 34° |
| 2026-05-05 12:51 | 46.86664 | 2.16772 | 9821 ft | 217 kts | 170° |
| 2026-05-05 12:52 | 46.86304 | 2.14639 | 8428 ft | 289 kts | 302° |
| 2026-05-05 12:52 | 46.87241 | 2.15731 | 8978 ft | 230 kts | 114° |
| 2026-05-05 12:52 | 46.86377 | 2.16489 | 12020 ft | 66 kts | 184° |
| 2026-05-05 12:52 | 46.85827 | 2.16425 | 11810 ft | 144 kts | 191° |
| 2026-05-05 12:53 | 46.84413 | 2.15993 | 11017 ft | 241 kts | 193° |
| 2026-05-05 12:53 | 46.82720 | 2.15410 | 10961 ft | 254 kts | 194° |
| 2026-05-05 12:53 | 46.81026 | 2.14697 | 10980 ft | 256 kts | 198° |
| 2026-05-05 12:53 | 46.79591 | 2.15083 | 12089 ft | 216 kts | 127° |
| 2026-05-05 12:54 | 46.80020 | 2.17354 | 10821 ft | 112 kts | 233° |
| 2026-05-05 12:54 | 46.81704 | 2.17507 | 8690 ft | 86 kts | 347° |
| 2026-05-05 12:54 | 46.81444 | 2.17402 | 12979 ft | 67 kts | 181° |
| 2026-05-05 12:55 | 46.80704 | 2.17145 | 11111 ft | 203 kts | 235° |
| 2026-05-05 12:55 | 46.81881 | 2.16266 | 9480 ft | 295 kts | 41° |
| 2026-05-05 12:55 | 46.81362 | 2.17807 | 7500 ft | 326 kts | 225° |
| 2026-05-05 12:55 | 46.82127 | 2.15761 | 8310 ft | 216 kts | 24° |
| 2026-05-05 12:56 | 46.82158 | 2.17257 | 11157 ft | 155 kts | 134° |
| 2026-05-05 12:56 | 46.81223 | 2.17079 | 9180 ft | 247 kts | 269° |
| 2026-05-05 12:56 | 46.82831 | 2.15983 | 7813 ft | 327 kts | 32° |
| 2026-05-05 12:56 | 46.83372 | 2.18790 | 8085 ft | 314 kts | 127° |
| 2026-05-05 12:57 | 46.81630 | 2.19244 | 10010 ft | 243 kts | 204° |
| 2026-05-05 12:57 | 46.80472 | 2.17632 | 11278 ft | 245 kts | 230° |
| 2026-05-05 12:57 | 46.79206 | 2.15461 | 7829 ft | 341 kts | 233° |
| 2026-05-05 12:57 | 46.78620 | 2.15736 | 10259 ft | 82 kts | 117° |
| 2026-05-05 12:58 | 46.79618 | 2.13743 | 8137 ft | 309 kts | 279° |
| 2026-05-05 12:58 | 46.78325 | 2.13264 | 8395 ft | 302 kts | 99° |
| 2026-05-05 12:58 | 46.79699 | 2.14002 | 8682 ft | 282 kts | 292° |
| 2026-05-05 12:58 | 46.78614 | 2.13670 | 8070 ft | 295 kts | 87° |
| 2026-05-05 12:59 | 46.79704 | 2.13464 | 7850 ft | 290 kts | 242° |
| 2026-05-05 12:59 | 46.79179 | 2.14348 | 7961 ft | 271 kts | 1° |
| 2026-05-05 12:59 | 46.78921 | 2.13146 | 8300 ft | 257 kts | 153° |
| 2026-05-05 13:00 | 46.81237 | 2.15301 | 8694 ft | 285 kts | 48° |
| 2026-05-05 13:00 | 46.82611 | 2.17520 | 8712 ft | 296 kts | 44° |
| 2026-05-05 13:01 | 46.85406 | 2.24264 | 9732 ft | 252 kts | 77° |
| 2026-05-05 13:01 | 46.85613 | 2.26806 | 9603 ft | 252 kts | 87° |
| 2026-05-05 13:01 | 46.85671 | 2.29364 | 9567 ft | 251 kts | 88° |
| 2026-05-05 13:01 | 46.85716 | 2.31911 | 9577 ft | 250 kts | 89° |
| 2026-05-05 13:02 | 46.85737 | 2.34460 | 9647 ft | 252 kts | 90° |
| 2026-05-05 13:02 | 46.85713 | 2.37191 | 9638 ft | 285 kts | 90° |
| 2026-05-05 13:02 | 46.85721 | 2.40135 | 9550 ft | 290 kts | 90° |
| 2026-05-05 13:02 | 46.85693 | 2.43021 | 9568 ft | 286 kts | 92° |
| 2026-05-05 13:03 | 46.85570 | 2.45922 | 9569 ft | 285 kts | 92° |
| 2026-05-05 13:03 | 46.85507 | 2.48807 | 9572 ft | 283 kts | 91° |
| 2026-05-05 13:03 | 46.85618 | 2.51665 | 9571 ft | 282 kts | 78° |
| 2026-05-05 13:03 | 46.86276 | 2.54339 | 9581 ft | 278 kts | 65° |
| 2026-05-05 13:04 | 46.87396 | 2.56613 | 9502 ft | 277 kts | 43° |
| 2026-05-05 13:04 | 46.88696 | 2.58561 | 9461 ft | 268 kts | 48° |
| 2026-05-05 13:04 | 46.89872 | 2.60739 | 9464 ft | 276 kts | 52° |
| 2026-05-05 13:04 | 46.91082 | 2.63012 | 9497 ft | 285 kts | 52° |
| 2026-05-05 13:05 | 46.92315 | 2.65343 | 8863 ft | 305 kts | 51° |
| 2026-05-05 13:05 | 46.93675 | 2.67837 | 8132 ft | 316 kts | 51° |
| 2026-05-05 13:05 | 46.95030 | 2.70335 | 7496 ft | 318 kts | 51° |
| 2026-05-05 13:05 | 46.96422 | 2.72810 | 6930 ft | 297 kts | 50° |
| 2026-05-05 13:06 | 46.97742 | 2.75234 | 6180 ft | 314 kts | 51° |
| 2026-05-05 13:06 | 46.99092 | 2.77770 | 5690 ft | 312 kts | 53° |
| 2026-05-05 13:06 | 47.00442 | 2.80170 | 5113 ft | 298 kts | 40° |
| 2026-05-05 13:06 | 47.02267 | 2.81502 | 4442 ft | 292 kts | 13° |
| 2026-05-05 13:07 | 47.04275 | 2.81393 | 3626 ft | 298 kts | 346° |
| 2026-05-05 13:07 | 47.06190 | 2.80226 | 3215 ft | 296 kts | 329° |
| 2026-05-05 13:07 | 47.07799 | 2.78370 | 2867 ft | 296 kts | 308° |
| 2026-05-05 13:07 | 47.08862 | 2.76003 | 2669 ft | 256 kts | 301° |
| 2026-05-05 13:08 | 47.09521 | 2.73611 | 2124 ft | 264 kts | 265° |
| 2026-05-05 13:08 | 47.08835 | 2.71591 | 1658 ft | 218 kts | 234° |
| 2026-05-05 13:08 | 47.08020 | 2.69688 | 1279 ft | 214 kts | 242° |
| 2026-05-05 13:08 | 47.07401 | 2.67946 | 976 ft | 167 kts | 240° |
| 2026-05-05 13:09 | 47.06912 | 2.66654 | 803 ft | 144 kts | 240° |
| 2026-05-05 13:09 | 47.06440 | 2.65443 | 624 ft | 131 kts | 240° |
| 2026-05-05 13:09 | 47.06001 | 2.64303 | 578 ft | 126 kts | 240° |
| 2026-05-05 13:09 | 47.05523 | 2.63098 | 597 ft | 158 kts | 242° |
| 2026-05-05 13:10 | 47.05136 | 2.61429 | 951 ft | 184 kts | 269° |
| 2026-05-05 13:10 | 47.05635 | 2.59585 | 1278 ft | 219 kts | 317° |
| 2026-05-05 13:10 | 47.07138 | 2.58964 | 1590 ft | 224 kts | 7° |
| 2026-05-05 13:10 | 47.08461 | 2.59989 | 1722 ft | 229 kts | 42° |
| 2026-05-05 13:11 | 47.09551 | 2.61614 | 1779 ft | 218 kts | 52° |
| 2026-05-05 13:11 | 47.10352 | 2.63640 | 1828 ft | 244 kts | 64° |
| 2026-05-05 13:11 | 47.10880 | 2.65159 | 1839 ft | 258 kts | 60° |
| 2026-05-05 13:11 | 47.11722 | 2.67421 | 1862 ft | 248 kts | 63° |
| 2026-05-05 13:12 | 47.12671 | 2.70504 | 2027 ft | 248 kts | 79° |
| 2026-05-05 13:12 | 47.12486 | 2.72144 | 2055 ft | 248 kts | 119° |
| 2026-05-05 13:12 | 47.10979 | 2.73232 | 1939 ft | 251 kts | 183° |
| 2026-05-05 13:12 | 47.09544 | 2.72063 | 1792 ft | 238 kts | 213° |
| 2026-05-05 13:13 | 47.08529 | 2.70593 | 1509 ft | 178 kts | 242° |
| 2026-05-05 13:13 | 47.07900 | 2.69183 | 1328 ft | 148 kts | 239° |
| 2026-05-05 13:13 | 47.07391 | 2.67895 | 1090 ft | 149 kts | 240° |
| 2026-05-05 13:13 | 47.06875 | 2.66576 | 825 ft | 148 kts | 240° |
| 2026-05-05 13:14 | 47.06374 | 2.65279 | 598 ft | 144 kts | 241° |
| 2026-05-05 13:14 | 47.05910 | 2.64070 | 583 ft | 128 kts | 241° |
| 2026-05-05 13:14 | 47.05445 | 2.62871 | 643 ft | 154 kts | 241° |
| 2026-05-05 13:14 | 47.05081 | 2.61250 | 1056 ft | 177 kts | 274° |
| 2026-05-05 13:15 | 47.05801 | 2.59535 | 1428 ft | 234 kts | 329° |
| 2026-05-05 13:15 | 47.07452 | 2.59598 | 1732 ft | 265 kts | 27° |
| 2026-05-05 13:15 | 47.08627 | 2.61716 | 2068 ft | 273 kts | 62° |
| 2026-05-05 13:15 | 47.09606 | 2.63961 | 2140 ft | 245 kts | 58° |
| 2026-05-05 13:16 | 47.10509 | 2.66195 | 2127 ft | 261 kts | 58° |
| 2026-05-05 13:16 | 47.11231 | 2.68555 | 2222 ft | 233 kts | 89° |
| 2026-05-05 13:16 | 47.10496 | 2.70572 | 1677 ft | 235 kts | 142° |
| 2026-05-05 13:16 | 47.09042 | 2.71045 | 1347 ft | 193 kts | 210° |
| 2026-05-05 13:17 | 47.08241 | 2.69832 | 1152 ft | 142 kts | 231° |
| 2026-05-05 13:17 | 47.07642 | 2.68689 | 1037 ft | 146 kts | 244° |
| 2026-05-05 13:17 | 47.07160 | 2.67328 | 853 ft | 150 kts | 243° |
| 2026-05-05 13:17 | 47.06663 | 2.66028 | 692 ft | 144 kts | 240° |
| 2026-05-05 13:18 | 47.06188 | 2.64796 | 566 ft | 122 kts | 241° |
| 2026-05-05 13:18 | 47.05841 | 2.63892 | 568 ft | 72 kts | 239° |
| 2026-05-05 13:18 | 47.05611 | 2.63310 | 566 ft | 58 kts | 239° |
| 2026-05-05 13:18 | 47.05453 | 2.62897 | 569 ft | 39 kts | 242° |
| 2026-05-05 13:19 | 47.05349 | 2.62626 | 569 ft | 14 kts | 240° |
| 2026-05-05 13:19 | 47.05309 | 2.62551 | 567 ft | 6 kts | 216° |
| 2026-05-05 13:19 | 47.05234 | 2.62529 | 565 ft | 15 kts | 155° |
| 2026-05-05 13:19 | 47.05108 | 2.62626 | 569 ft | 26 kts | 143° |
| 2026-05-05 13:20 | 47.04955 | 2.62831 | 565 ft | 31 kts | 134° |
| 2026-05-05 13:20 | 47.04910 | 2.63006 | 565 ft | 15 kts | 115° |
| 2026-05-05 13:20 | 47.04863 | 2.63155 | 566 ft | 14 kts | 113° |
| 2026-05-05 13:20 | 47.04857 | 2.63244 | 565 ft | 8 kts | 71° |
| 2026-05-05 13:21 | 47.04841 | 2.63337 | 568 ft | 7 kts | 111° |
| 2026-05-05 13:21 | 47.04814 | 2.63346 | 565 ft | 5 kts | 206° |
| 2026-05-05 13:21 | 47.04812 | 2.63345 | 565 ft | 0 kts | 201° |